Time;durP1;ratioP1;P1;durP2;ratioP2;P2;SDS_P1;SDS_P2;PMS_P1;PMS_P2;Temp;Humidity;BMP_temperature;BMP_pressure;BME280_temperature;BME280_humidity;BME280_pressure;Samples;Min_cycle;Max_cycle;Signal;HPM_P1;HPM_P2
2021/12/26 00:00:40;;;;;;;;;26.00;23.75;;;;;;;;5116476;27;45447;-82
2021/12/26 00:03:05;;;;;;;;;27.50;25.50;;;;;;;;5116277;27;45404;-82
2021/12/26 00:05:30;;;;;;;;;27.67;24.00;;;;;;;;5134793;27;46525;-85
2021/12/26 00:07:56;;;;;;;;;27.67;26.67;;;;;;;;5135344;27;45309;-81
2021/12/26 00:10:23;;;;;;;;;30.50;28.75;;;;;;;;5134434;27;45465;-84
2021/12/26 00:12:48;;;;;;;;;30.50;27.75;;;;;;;;5116451;27;45495;-81
2021/12/26 00:15:13;;;;;;;;;29.00;26.00;;;;;;;;5134455;27;46019;-84
2021/12/26 00:17:39;;;;;;;;;27.00;23.33;;;;;;;;5134947;27;45370;-81
2021/12/26 00:20:06;;;;;;;;;36.00;31.33;;;;;;;;5134991;27;45451;-81
2021/12/26 00:22:31;;;;;;;;;28.75;27.00;;;;;;;;5115392;27;45559;-81
2021/12/26 00:24:56;;;;;;;;;28.00;26.25;;;;;;;;5134491;27;45454;-81
2021/12/26 00:27:22;;;;;;;;;27.25;26.75;;;;;;;;5134768;27;45338;-80
2021/12/26 00:29:47;;;;;;;;;26.67;24.33;;;;;;;;5135014;27;45463;-81
2021/12/26 00:32:12;;;;;;;;;28.50;26.50;;;;;;;;5134728;27;45325;-80
2021/12/26 00:34:38;;;;;;;;;31.33;26.33;;;;;;;;5134959;27;46377;-80
2021/12/26 00:37:04;;;;;;;;;24.75;24.75;;;;;;;;5134625;27;45315;-80
2021/12/26 00:39:30;;;;;;;;;26.50;25.75;;;;;;;;5134374;27;45400;-80
2021/12/26 00:41:55;;;;;;;;;27.00;25.00;;;;;;;;5134773;27;45435;-81
2021/12/26 00:44:20;;;;;;;;;25.00;21.67;;;;;;;;5133963;27;46796;-81
2021/12/26 00:46:45;;;;;;;;;34.67;28.00;;;;;;;;5134532;27;45425;-81
2021/12/26 00:49:11;;;;;;;;;30.33;25.67;;;;;;;;5134851;27;45412;-83
2021/12/26 00:51:36;;;;;;;;;31.00;28.67;;;;;;;;5136321;27;45335;-85
2021/12/26 00:54:01;;;;;;;;;30.00;26.00;;;;;;;;5118513;27;47409;-81
2021/12/26 00:56:27;;;;;;;;;29.25;26.25;;;;;;;;5138234;27;45309;-84
2021/12/26 00:58:52;;;;;;;;;36.33;28.00;;;;;;;;5119619;27;45334;-84
2021/12/26 01:01:17;;;;;;;;;26.33;24.33;;;;;;;;5119289;27;45296;-81
2021/12/26 01:03:43;;;;;;;;;30.33;27.33;;;;;;;;5137928;27;46188;-82
2021/12/26 01:06:09;;;;;;;;;30.25;26.75;;;;;;;;5137840;27;45453;-80
2021/12/26 01:08:38;;;;;;;;;28.00;26.75;;;;;;;;5118549;27;45344;-82
2021/12/26 01:11:08;;;;;;;;;26.75;24.25;;;;;;;;5137926;27;45378;-81
2021/12/26 01:13:37;;;;;;;;;31.50;28.25;;;;;;;;5137573;27;45561;-84
2021/12/26 01:16:04;;;;;;;;;34.00;28.25;;;;;;;;5119194;27;46255;-81
2021/12/26 01:18:32;;;;;;;;;28.00;26.00;;;;;;;;5119186;27;45381;-85
2021/12/26 01:21:06;;;;;;;;;27.50;23.75;;;;;;;;5138049;27;45313;-84
2021/12/26 01:23:32;;;;;;;;;28.75;27.50;;;;;;;;5118669;27;48231;-81
2021/12/26 01:25:58;;;;;;;;;30.75;25.75;;;;;;;;5118627;27;45823;-84
2021/12/26 01:28:28;;;;;;;;;24.00;22.00;;;;;;;;5138146;27;45654;-85
2021/12/26 01:30:53;;;;;;;;;27.50;21.25;;;;;;;;5137742;27;45569;-85
2021/12/26 01:33:19;;;;;;;;;27.25;23.50;;;;;;;;5118732;27;47273;-81
2021/12/26 01:35:44;;;;;;;;;25.25;23.75;;;;;;;;5119130;27;45553;-83
2021/12/26 01:38:13;;;;;;;;;25.25;22.75;;;;;;;;5137239;27;45301;-84
2021/12/26 01:40:41;;;;;;;;;22.25;21.50;;;;;;;;5118828;27;45598;-82
2021/12/26 01:43:06;;;;;;;;;25.75;21.75;;;;;;;;5118615;27;47681;-84
2021/12/26 01:45:32;;;;;;;;;27.00;25.00;;;;;;;;5118507;27;46298;-85
2021/12/26 01:47:58;;;;;;;;;30.25;28.50;;;;;;;;5137320;27;45379;-84
2021/12/26 01:50:24;;;;;;;;;27.00;23.50;;;;;;;;5137350;27;45328;-81
2021/12/26 01:52:49;;;;;;;;;30.50;28.50;;;;;;;;5136607;27;45319;-81
2021/12/26 01:55:23;;;;;;;;;26.00;24.33;;;;;;;;5137296;27;45664;-84
2021/12/26 01:57:53;;;;;;;;;28.25;26.75;;;;;;;;5137390;27;45406;-81
2021/12/26 02:00:19;;;;;;;;;26.00;24.50;;;;;;;;5137166;27;45483;-81
2021/12/26 02:02:44;;;;;;;;;27.75;26.75;;;;;;;;5136485;27;46442;-84
2021/12/26 02:05:10;;;;;;;;;22.67;22.00;;;;;;;;5136540;27;45355;-81
2021/12/26 02:07:35;;;;;;;;;26.75;22.25;;;;;;;;5137113;27;45234;-84
2021/12/26 02:10:00;;;;;;;;;24.67;21.33;;;;;;;;5136814;27;45384;-85
2021/12/26 02:12:25;;;;;;;;;24.33;22.00;;;;;;;;5136793;27;46716;-84
2021/12/26 02:14:52;;;;;;;;;25.33;23.00;;;;;;;;5117995;27;46211;-84
2021/12/26 02:17:17;;;;;;;;;27.50;25.50;;;;;;;;5137372;27;45695;-85
2021/12/26 02:19:43;;;;;;;;;26.75;24.25;;;;;;;;5118364;27;45323;-85
2021/12/26 02:22:13;;;;;;;;;28.25;27.00;;;;;;;;5117756;27;47468;-81
2021/12/26 02:27:32;;;;;;;;;28.50;25.50;;;;;;;;5137171;27;45351;-81
2021/12/26 02:30:05;;;;;;;;;24.75;21.50;;;;;;;;5136771;27;45227;-82
2021/12/26 02:32:31;;;;;;;;;28.75;25.50;;;;;;;;5136708;27;45419;-86
2021/12/26 02:34:57;;;;;;;;;21.50;21.25;;;;;;;;5136443;27;45314;-80
2021/12/26 02:37:22;;;;;;;;;25.00;23.25;;;;;;;;5136732;27;45424;-80
2021/12/26 02:39:48;;;;;;;;;28.50;24.75;;;;;;;;5117553;27;45330;-82
2021/12/26 02:42:16;;;;;;;;;24.67;21.00;;;;;;;;5135964;27;45377;-83
2021/12/26 02:44:41;;;;;;;;;22.25;21.00;;;;;;;;5136306;27;45859;-80
2021/12/26 02:47:09;;;;;;;;;20.33;18.33;;;;;;;;5117933;27;45460;-81
2021/12/26 02:49:34;;;;;;;;;22.75;22.50;;;;;;;;5136448;27;46061;-81
2021/12/26 02:51:59;;;;;;;;;24.33;23.00;;;;;;;;5136123;27;46212;-81
2021/12/26 02:54:25;;;;;;;;;22.67;21.00;;;;;;;;5117212;27;45364;-81
2021/12/26 02:56:50;;;;;;;;;21.25;20.50;;;;;;;;5117753;27;45443;-80
2021/12/26 02:59:16;;;;;;;;;27.25;23.50;;;;;;;;5136134;27;45551;-81
2021/12/26 03:01:41;;;;;;;;;28.67;25.67;;;;;;;;5136139;27;45393;-81
2021/12/26 03:04:08;;;;;;;;;28.00;25.00;;;;;;;;5117439;27;45384;-81
2021/12/26 03:09:08;;;;;;;;;28.00;25.75;;;;;;;;5135736;27;45231;-81
2021/12/26 03:11:35;;;;;;;;;25.00;21.67;;;;;;;;5117494;27;46012;-85
2021/12/26 03:14:00;;;;;;;;;24.75;22.00;;;;;;;;5136210;27;45818;-84
2021/12/26 03:16:25;;;;;;;;;23.00;21.00;;;;;;;;5117013;27;45408;-84
2021/12/26 03:18:55;;;;;;;;;23.67;21.00;;;;;;;;5135996;27;45446;-81
2021/12/26 03:21:20;;;;;;;;;20.75;20.00;;;;;;;;5117190;27;47441;-83
2021/12/26 03:23:45;;;;;;;;;23.33;21.33;;;;;;;;5135021;27;45526;-82
2021/12/26 03:26:11;;;;;;;;;26.33;25.00;;;;;;;;5135846;27;45483;-81
2021/12/26 03:28:36;;;;;;;;;24.00;22.00;;;;;;;;5135465;27;45527;-84
2021/12/26 03:31:02;;;;;;;;;23.00;22.00;;;;;;;;5116898;27;48043;-81
2021/12/26 03:33:28;;;;;;;;;21.75;21.50;;;;;;;;5116950;27;45706;-83
2021/12/26 03:35:53;;;;;;;;;25.00;22.75;;;;;;;;5135723;27;45244;-85
2021/12/26 03:38:19;;;;;;;;;25.67;20.33;;;;;;;;5135387;27;45638;-81
2021/12/26 03:40:44;;;;;;;;;25.25;23.75;;;;;;;;5135347;27;45330;-84
2021/12/26 03:43:10;;;;;;;;;24.00;20.75;;;;;;;;5135423;27;45348;-82
2021/12/26 03:45:35;;;;;;;;;27.75;27.25;;;;;;;;5135420;27;45345;-85
2021/12/26 03:48:01;;;;;;;;;26.67;24.67;;;;;;;;5135749;27;45294;-82
2021/12/26 03:50:28;;;;;;;;;25.25;24.00;;;;;;;;5116398;27;47519;-81
2021/12/26 03:52:56;;;;;;;;;29.00;26.25;;;;;;;;5116229;27;45502;-84
2021/12/26 03:55:22;;;;;;;;;28.75;24.75;;;;;;;;5135432;27;45294;-81
2021/12/26 03:57:47;;;;;;;;;29.25;25.75;;;;;;;;5116741;27;45607;-85
2021/12/26 04:00:16;;;;;;;;;22.33;21.67;;;;;;;;5134806;27;47731;-80
2021/12/26 04:02:43;;;;;;;;;23.50;23.00;;;;;;;;5116959;27;45595;-81
2021/12/26 04:05:08;;;;;;;;;29.25;27.75;;;;;;;;5135315;27;45517;-80
2021/12/26 04:07:33;;;;;;;;;29.00;26.75;;;;;;;;5116666;27;45425;-83
2021/12/26 04:09:59;;;;;;;;;25.67;24.67;;;;;;;;5134929;27;45483;-80
2021/12/26 04:12:24;;;;;;;;;27.00;26.67;;;;;;;;5116468;27;45600;-84
2021/12/26 04:14:49;;;;;;;;;27.67;25.33;;;;;;;;5116402;27;45431;-83
2021/12/26 04:17:17;;;;;;;;;26.00;24.67;;;;;;;;5116363;27;45429;-85
2021/12/26 04:19:42;;;;;;;;;26.00;24.00;;;;;;;;5134916;27;46270;-80
2021/12/26 04:22:08;;;;;;;;;33.33;28.67;;;;;;;;5135267;27;45709;-81
2021/12/26 04:24:34;;;;;;;;;26.75;25.75;;;;;;;;5115925;27;45376;-81
2021/12/26 04:26:59;;;;;;;;;26.50;25.50;;;;;;;;5137499;27;45331;-82
2021/12/26 04:29:24;;;;;;;;;28.67;26.67;;;;;;;;5138514;27;45614;-84
2021/12/26 04:31:49;;;;;;;;;24.67;21.67;;;;;;;;5120157;27;45483;-81
2021/12/26 04:34:14;;;;;;;;;32.00;27.33;;;;;;;;5119876;27;45609;-81
2021/12/26 04:36:40;;;;;;;;;28.67;26.67;;;;;;;;5120210;27;45658;-84
2021/12/26 04:39:05;;;;;;;;;27.75;25.50;;;;;;;;5138000;27;46101;-84
2021/12/26 04:41:30;;;;;;;;;27.00;26.00;;;;;;;;5119727;27;45407;-81
2021/12/26 04:43:55;;;;;;;;;27.33;25.33;;;;;;;;5119656;27;45441;-84
2021/12/26 04:46:21;;;;;;;;;27.67;26.00;;;;;;;;5119857;27;45494;-84
2021/12/26 04:48:46;;;;;;;;;33.33;28.33;;;;;;;;5138290;27;45531;-84
2021/12/26 04:51:12;;;;;;;;;27.67;26.33;;;;;;;;5138344;27;45375;-85
2021/12/26 04:53:38;;;;;;;;;23.75;22.25;;;;;;;;5137833;27;45481;-81
2021/12/26 04:56:04;;;;;;;;;25.75;24.00;;;;;;;;5119641;27;45399;-81
2021/12/26 04:58:29;;;;;;;;;24.50;24.50;;;;;;;;5119412;27;47806;-84
2021/12/26 05:00:54;;;;;;;;;24.75;24.25;;;;;;;;5119398;27;45518;-80
2021/12/26 05:03:20;;;;;;;;;25.67;22.00;;;;;;;;5119757;27;45589;-80
2021/12/26 05:05:46;;;;;;;;;26.00;25.00;;;;;;;;5137746;27;45607;-80
2021/12/26 05:08:12;;;;;;;;;24.75;23.50;;;;;;;;5137389;27;46368;-80
2021/12/26 05:10:37;;;;;;;;;24.50;23.25;;;;;;;;5138010;27;45476;-80
2021/12/26 05:13:03;;;;;;;;;25.25;22.00;;;;;;;;5119411;27;45231;-81
2021/12/26 05:15:29;;;;;;;;;22.25;22.00;;;;;;;;5137837;27;45490;-81
2021/12/26 05:17:54;;;;;;;;;21.75;21.25;;;;;;;;5137526;27;45675;-81
2021/12/26 05:20:21;;;;;;;;;24.25;21.75;;;;;;;;5137949;27;45473;-81
2021/12/26 05:22:47;;;;;;;;;21.00;20.50;;;;;;;;5137469;27;45398;-81
2021/12/26 05:25:13;;;;;;;;;24.00;19.00;;;;;;;;5118857;27;45714;-80
2021/12/26 05:27:38;;;;;;;;;23.75;21.25;;;;;;;;5137765;27;45408;-81
2021/12/26 05:30:05;;;;;;;;;20.00;19.33;;;;;;;;5137600;27;45354;-83
2021/12/26 05:32:30;;;;;;;;;19.75;19.75;;;;;;;;5137183;27;45302;-80
2021/12/26 05:34:55;;;;;;;;;21.00;20.33;;;;;;;;5137402;27;45359;-81
2021/12/26 05:37:21;;;;;;;;;20.67;18.67;;;;;;;;5136210;27;45498;-81
2021/12/26 05:39:46;;;;;;;;;22.33;21.33;;;;;;;;5118271;27;45551;-81
2021/12/26 05:42:15;;;;;;;;;28.33;25.00;;;;;;;;5137472;27;45579;-81
2021/12/26 05:44:41;;;;;;;;;20.25;18.75;;;;;;;;5118750;27;45667;-82
2021/12/26 05:47:06;;;;;;;;;23.00;23.00;;;;;;;;5118491;27;48190;-81
2021/12/26 05:49:31;;;;;;;;;20.67;19.33;;;;;;;;5118432;27;45739;-82
2021/12/26 05:51:57;;;;;;;;;21.33;20.67;;;;;;;;5118430;27;45470;-82
2021/12/26 05:54:22;;;;;;;;;20.33;20.00;;;;;;;;5117901;27;45736;-81
2021/12/26 05:56:47;;;;;;;;;19.33;18.67;;;;;;;;5136895;27;45576;-81
2021/12/26 05:59:12;;;;;;;;;19.33;18.67;;;;;;;;5137159;27;45408;-80
2021/12/26 06:01:37;;;;;;;;;19.33;18.00;;;;;;;;5136959;27;45401;-81
2021/12/26 06:04:03;;;;;;;;;20.67;19.67;;;;;;;;5118537;27;45539;-81
2021/12/26 06:06:28;;;;;;;;;21.00;20.00;;;;;;;;5117936;27;48370;-81
2021/12/26 06:08:53;;;;;;;;;21.33;20.00;;;;;;;;5136232;27;45452;-82
2021/12/26 06:11:18;;;;;;;;;21.67;19.33;;;;;;;;5118506;27;45290;-81
2021/12/26 06:13:44;;;;;;;;;21.67;21.00;;;;;;;;5118322;27;45623;-81
2021/12/26 06:16:09;;;;;;;;;22.33;20.33;;;;;;;;5136312;27;46693;-81
2021/12/26 06:18:34;;;;;;;;;22.33;20.33;;;;;;;;5136810;27;45360;-81
2021/12/26 06:20:59;;;;;;;;;19.00;18.33;;;;;;;;5137229;27;45428;-83
2021/12/26 06:23:24;;;;;;;;;21.33;18.67;;;;;;;;5136184;27;45587;-80
2021/12/26 06:25:50;;;;;;;;;18.00;17.33;;;;;;;;5117872;27;47843;-81
2021/12/26 06:28:15;;;;;;;;;17.00;16.00;;;;;;;;5136690;27;45329;-81
2021/12/26 06:30:40;;;;;;;;;19.67;19.67;;;;;;;;5118165;27;45382;-81
2021/12/26 06:33:05;;;;;;;;;22.75;20.75;;;;;;;;5136534;27;45371;-81
2021/12/26 06:35:31;;;;;;;;;19.33;18.33;;;;;;;;5136715;27;46212;-81
2021/12/26 06:37:57;;;;;;;;;18.67;18.00;;;;;;;;5117306;27;46343;-80
2021/12/26 06:40:22;;;;;;;;;18.50;17.75;;;;;;;;5117775;27;45387;-80
2021/12/26 06:42:49;;;;;;;;;20.67;20.00;;;;;;;;5117700;27;45559;-80
2021/12/26 06:45:16;;;;;;;;;18.50;18.25;;;;;;;;5136228;27;45508;-80
2021/12/26 06:47:45;;;;;;;;;16.75;15.50;;;;;;;;5117428;27;45949;-81
2021/12/26 06:50:11;;;;;;;;;21.25;20.25;;;;;;;;5136011;27;45371;-80
2021/12/26 06:52:36;;;;;;;;;18.75;17.75;;;;;;;;5135935;27;45761;-81
2021/12/26 06:55:01;;;;;;;;;24.00;19.33;;;;;;;;5117111;27;46797;-81
2021/12/26 06:57:26;;;;;;;;;18.00;17.00;;;;;;;;5117375;27;46166;-80
2021/12/26 06:59:52;;;;;;;;;18.33;16.00;;;;;;;;5136063;27;45359;-81
2021/12/26 07:02:17;;;;;;;;;19.33;18.67;;;;;;;;5117873;27;45560;-80
2021/12/26 07:04:42;;;;;;;;;20.00;18.00;;;;;;;;5135623;27;46801;-80
2021/12/26 07:07:07;;;;;;;;;20.33;19.00;;;;;;;;5135604;27;45566;-80
2021/12/26 07:09:32;;;;;;;;;21.33;20.00;;;;;;;;5135910;27;45440;-80
2021/12/26 07:11:58;;;;;;;;;18.00;16.67;;;;;;;;5117395;27;45340;-84
2021/12/26 07:14:23;;;;;;;;;24.67;22.33;;;;;;;;5135616;27;46234;-80
2021/12/26 07:16:48;;;;;;;;;20.00;17.67;;;;;;;;5135902;27;45330;-80
2021/12/26 07:19:13;;;;;;;;;22.33;21.00;;;;;;;;5135461;27;45372;-80
2021/12/26 07:21:40;;;;;;;;;20.33;18.67;;;;;;;;5135933;27;45432;-80
2021/12/26 07:24:05;;;;;;;;;25.50;23.00;;;;;;;;5116546;27;47128;-81
2021/12/26 07:26:30;;;;;;;;;25.75;22.25;;;;;;;;5135659;27;45483;-81
2021/12/26 07:28:56;;;;;;;;;26.00;22.00;;;;;;;;5117172;27;45505;-80
2021/12/26 07:31:21;;;;;;;;;19.67;19.00;;;;;;;;5135611;27;45597;-81
2021/12/26 07:33:46;;;;;;;;;26.00;24.50;;;;;;;;5116790;27;45973;-80
2021/12/26 07:36:12;;;;;;;;;23.33;22.33;;;;;;;;5117018;27;45614;-81
2021/12/26 07:38:37;;;;;;;;;22.33;20.67;;;;;;;;5135204;27;45447;-81
2021/12/26 07:41:02;;;;;;;;;23.50;21.50;;;;;;;;5135423;27;45525;-81
2021/12/26 07:43:28;;;;;;;;;21.00;19.00;;;;;;;;5135247;27;46730;-81
2021/12/26 07:45:53;;;;;;;;;22.33;21.00;;;;;;;;5135537;27;45447;-81
2021/12/26 07:48:18;;;;;;;;;18.33;18.00;;;;;;;;5135494;27;45435;-81
2021/12/26 07:50:43;;;;;;;;;18.67;17.33;;;;;;;;5116786;27;45539;-80
2021/12/26 07:53:11;;;;;;;;;23.00;20.67;;;;;;;;5115536;27;47915;-80
2021/12/26 07:55:37;;;;;;;;;19.50;17.25;;;;;;;;5116566;27;45344;-80
2021/12/26 07:58:02;;;;;;;;;25.50;20.50;;;;;;;;5116585;27;45397;-80
2021/12/26 08:00:28;;;;;;;;;17.75;17.75;;;;;;;;5115641;27;45552;-81
2021/12/26 08:02:54;;;;;;;;;18.67;17.67;;;;;;;;5135160;27;46481;-81
2021/12/26 08:05:19;;;;;;;;;20.00;19.25;;;;;;;;5135051;27;45307;-81
2021/12/26 08:07:45;;;;;;;;;21.75;21.00;;;;;;;;5134872;27;45444;-81
2021/12/26 08:10:10;;;;;;;;;20.00;19.33;;;;;;;;5135236;27;45355;-80
2021/12/26 08:12:35;;;;;;;;;16.75;16.25;;;;;;;;5134840;27;45348;-81
2021/12/26 08:15:02;;;;;;;;;18.50;16.00;;;;;;;;5116259;27;45391;-81
2021/12/26 08:17:28;;;;;;;;;20.75;19.00;;;;;;;;5116366;27;45495;-81
2021/12/26 08:19:53;;;;;;;;;19.75;18.50;;;;;;;;5134927;27;45601;-80
2021/12/26 08:22:18;;;;;;;;;14.67;13.00;;;;;;;;5134688;27;45463;-81
2021/12/26 08:24:44;;;;;;;;;23.33;21.00;;;;;;;;5115685;27;45402;-81
2021/12/26 08:27:09;;;;;;;;;18.00;17.00;;;;;;;;5134784;27;45476;-81
2021/12/26 08:29:34;;;;;;;;;18.67;17.00;;;;;;;;5116166;27;45533;-82
2021/12/26 08:32:00;;;;;;;;;21.00;20.00;;;;;;;;5134611;27;46158;-81
2021/12/26 08:34:26;;;;;;;;;18.75;18.00;;;;;;;;5134858;27;45352;-82
2021/12/26 08:37:01;;;;;;;;;19.67;19.33;;;;;;;;5134733;27;45362;-80
2021/12/26 08:39:27;;;;;;;;;21.50;18.75;;;;;;;;5115776;27;45392;-81
2021/12/26 08:41:52;;;;;;;;;21.25;20.75;;;;;;;;5134372;27;46363;-80
2021/12/26 08:44:18;;;;;;;;;28.67;24.33;;;;;;;;5134584;27;45267;-81
2021/12/26 08:46:44;;;;;;;;;29.00;23.25;;;;;;;;5116028;27;45472;-81
2021/12/26 08:49:09;;;;;;;;;31.33;26.67;;;;;;;;5134418;27;45356;-80
2021/12/26 08:51:35;;;;;;;;;21.50;20.25;;;;;;;;5115739;27;46913;-80
2021/12/26 08:54:02;;;;;;;;;19.50;19.50;;;;;;;;5115408;27;45405;-81
2021/12/26 08:56:28;;;;;;;;;20.50;19.75;;;;;;;;5134521;27;45338;-81
2021/12/26 08:58:53;;;;;;;;;19.50;19.25;;;;;;;;5134792;27;45408;-81
2021/12/26 09:01:18;;;;;;;;;20.33;19.33;;;;;;;;5115632;27;47522;-82
2021/12/26 09:03:44;;;;;;;;;21.00;20.00;;;;;;;;5115689;27;45360;-81
2021/12/26 09:06:09;;;;;;;;;23.33;20.00;;;;;;;;5134784;27;45687;-81
2021/12/26 09:08:35;;;;;;;;;19.67;18.33;;;;;;;;5134137;27;45392;-85
2021/12/26 09:11:00;;;;;;;;;22.00;20.33;;;;;;;;5134577;27;45859;-82
2021/12/26 09:13:26;;;;;;;;;21.33;20.33;;;;;;;;5118487;27;46028;-81
2021/12/26 09:15:51;;;;;;;;;18.75;16.50;;;;;;;;5137800;27;45508;-84
2021/12/26 09:18:16;;;;;;;;;17.67;14.00;;;;;;;;5137672;27;45543;-80
2021/12/26 09:20:41;;;;;;;;;18.67;17.67;;;;;;;;5137225;27;46775;-80
2021/12/26 09:23:06;;;;;;;;;21.33;21.00;;;;;;;;5118497;27;45355;-80
2021/12/26 09:25:32;;;;;;;;;18.67;18.00;;;;;;;;5118900;27;45475;-81
2021/12/26 09:27:57;;;;;;;;;12.00;11.67;;;;;;;;5137805;27;45389;-80
2021/12/26 09:30:22;;;;;;;;;18.00;18.00;;;;;;;;5118943;27;46537;-80
2021/12/26 09:32:48;;;;;;;;;16.00;16.00;;;;;;;;5137651;27;45295;-80
2021/12/26 09:35:13;;;;;;;;;16.25;15.75;;;;;;;;5137869;27;45356;-81
2021/12/26 09:37:38;;;;;;;;;16.75;14.00;;;;;;;;5118483;27;45423;-84
2021/12/26 09:40:04;;;;;;;;;18.67;16.33;;;;;;;;5137401;27;45371;-82
2021/12/26 09:42:29;;;;;;;;;17.75;14.75;;;;;;;;5118673;27;45722;-84
2021/12/26 09:44:55;;;;;;;;;12.00;12.00;;;;;;;;5137459;27;45357;-85
2021/12/26 09:47:20;;;;;;;;;15.75;15.00;;;;;;;;5118704;27;45592;-81
2021/12/26 09:49:45;;;;;;;;;12.25;11.25;;;;;;;;5118555;27;46927;-80
2021/12/26 09:52:10;;;;;;;;;12.33;11.00;;;;;;;;5118716;27;45444;-81
2021/12/26 09:54:36;;;;;;;;;15.67;13.00;;;;;;;;5118212;27;45491;-82
2021/12/26 09:57:01;;;;;;;;;13.25;12.75;;;;;;;;5118275;27;45644;-80
2021/12/26 09:59:27;;;;;;;;;14.75;13.50;;;;;;;;5118286;27;47190;-81
2021/12/26 10:01:57;;;;;;;;;13.00;13.00;;;;;;;;5137549;27;45612;-81
2021/12/26 10:04:29;;;;;;;;;13.25;12.25;;;;;;;;5137088;27;45271;-81
2021/12/26 10:07:00;;;;;;;;;12.00;11.00;;;;;;;;5137265;27;45340;-81
2021/12/26 10:09:25;;;;;;;;;13.50;12.50;;;;;;;;5118174;27;47148;-81
2021/12/26 10:11:51;;;;;;;;;16.67;14.33;;;;;;;;5118200;27;45449;-82
2021/12/26 10:14:18;;;;;;;;;12.50;12.25;;;;;;;;5118140;27;45370;-82
2021/12/26 10:16:48;;;;;;;;;16.75;14.00;;;;;;;;5118154;27;45472;-82
2021/12/26 10:19:13;;;;;;;;;19.50;19.00;;;;;;;;5136621;27;45590;-81
2021/12/26 10:21:49;;;;;;;;;17.25;15.00;;;;;;;;5117927;27;45523;-81
2021/12/26 10:24:17;;;;;;;;;20.75;18.50;;;;;;;;5130553;27;45488;-81
2021/12/26 10:26:44;;;;;;;;;15.75;15.25;;;;;;;;5136698;27;45547;-81
2021/12/26 10:29:15;;;;;;;;;17.25;14.00;;;;;;;;5117962;27;47105;-81
2021/12/26 10:31:58;;;;;;;;;20.25;19.25;;;;;;;;5136446;27;45485;-81
2021/12/26 10:34:35;;;;;;;;;13.75;12.00;;;;;;;;5117929;27;45290;-80
2021/12/26 10:37:01;;;;;;;;;15.50;14.25;;;;;;;;5136576;27;45219;-81
2021/12/26 10:39:32;;;;;;;;;14.00;12.25;;;;;;;;5117176;27;47618;-81
2021/12/26 10:41:59;;;;;;;;;15.00;14.00;;;;;;;;5136519;27;45894;-81
2021/12/26 10:44:27;;;;;;;;;12.50;12.50;;;;;;;;5136467;27;45276;-80
2021/12/26 10:46:55;;;;;;;;;12.00;10.75;;;;;;;;5117738;27;45401;-80
2021/12/26 10:49:21;;;;;;;;;8.25;7.00;;;;;;;;5136113;27;45558;-81
2021/12/26 10:51:46;;;;;;;;;4.75;4.75;;;;;;;;5136487;27;45448;-81
2021/12/26 10:54:12;;;;;;;;;5.67;5.67;;;;;;;;5116784;27;45434;-82
2021/12/26 10:56:37;;;;;;;;;6.25;4.50;;;;;;;;5136240;27;45555;-80
2021/12/26 10:59:20;;;;;;;;;4.00;4.00;;;;;;;;5135931;27;47901;-81
2021/12/26 11:01:45;;;;;;;;;2.75;2.75;;;;;;;;5136173;27;45400;-81
2021/12/26 11:04:14;;;;;;;;;1.67;1.67;;;;;;;;5117619;27;45407;-81
2021/12/26 11:07:17;;;;;;;;;1.75;1.50;;;;;;;;5136063;27;45297;-81
2021/12/26 11:09:43;;;;;;;;;2.00;2.00;;;;;;;;5013678;28;46633;-81
2021/12/26 11:12:09;;;;;;;;;3.00;3.00;;;;;;;;5115340;27;45549;-81
2021/12/26 11:14:53;;;;;;;;;4.25;3.00;;;;;;;;5117550;27;45434;-81
2021/12/26 11:17:32;;;;;;;;;1.50;1.00;;;;;;;;5117530;27;45477;-81
2021/12/26 11:19:57;;;;;;;;;2.00;2.00;;;;;;;;5130401;27;45906;-82
2021/12/26 11:22:26;;;;;;;;;2.00;2.00;;;;;;;;5116838;27;45352;-81
2021/12/26 11:24:53;;;;;;;;;2.00;1.75;;;;;;;;5117138;27;45278;-82
2021/12/26 11:27:19;;;;;;;;;2.00;2.00;;;;;;;;5117132;27;45685;-81
2021/12/26 11:29:44;;;;;;;;;1.00;1.00;;;;;;;;5117083;27;47433;-83
2021/12/26 11:32:09;;;;;;;;;2.00;2.00;;;;;;;;5117072;27;45677;-80
2021/12/26 11:34:36;;;;;;;;;2.50;2.50;;;;;;;;5116868;27;45439;-80
2021/12/26 11:37:01;;;;;;;;;2.00;2.00;;;;;;;;5117409;27;45568;-81
2021/12/26 11:39:27;;;;;;;;;3.25;3.00;;;;;;;;5134907;27;45386;-80
2021/12/26 11:42:05;;;;;;;;;4.00;4.00;;;;;;;;5135410;27;45345;-81
2021/12/26 11:44:40;;;;;;;;;4.50;3.25;;;;;;;;5135530;27;45427;-81
2021/12/26 11:47:17;;;;;;;;;4.25;4.25;;;;;;;;5135569;27;45266;-84
2021/12/26 11:50:04;;;;;;;;;6.75;6.75;;;;;;;;5116704;27;47167;-81
2021/12/26 11:52:29;;;;;;;;;11.00;10.50;;;;;;;;5134802;27;45445;-81
2021/12/26 11:55:10;;;;;;;;;7.75;6.50;;;;;;;;5135560;27;45361;-84
2021/12/26 11:57:54;;;;;;;;;9.50;9.50;;;;;;;;5135302;27;45585;-84
2021/12/26 12:00:26;;;;;;;;;10.25;10.00;;;;;;;;5135216;27;46460;-85
2021/12/26 12:02:53;;;;;;;;;8.50;8.25;;;;;;;;5135313;27;45434;-80
2021/12/26 12:05:26;;;;;;;;;8.50;7.75;;;;;;;;5135288;27;45578;-81
2021/12/26 12:07:59;;;;;;;;;7.50;7.00;;;;;;;;5134945;27;45412;-84
2021/12/26 12:10:30;;;;;;;;;7.00;7.00;;;;;;;;5134947;27;46682;-81
2021/12/26 12:12:56;;;;;;;;;5.50;5.50;;;;;;;;5134965;27;45364;-81
2021/12/26 12:15:40;;;;;;;;;6.67;6.00;;;;;;;;5135334;27;45365;-82
2021/12/26 12:18:10;;;;;;;;;7.00;7.00;;;;;;;;5135126;27;45595;-81
2021/12/26 12:20:35;;;;;;;;;6.75;6.50;;;;;;;;5134964;27;45442;-81
2021/12/26 12:23:09;;;;;;;;;4.67;4.67;;;;;;;;5134454;27;45338;-82
2021/12/26 12:25:38;;;;;;;;;7.00;6.00;;;;;;;;5134965;27;45319;-81
2021/12/26 12:28:03;;;;;;;;;4.50;4.50;;;;;;;;5116197;27;45471;-81
2021/12/26 12:30:28;;;;;;;;;4.75;4.75;;;;;;;;5134951;27;45591;-81
2021/12/26 12:33:13;;;;;;;;;8.00;7.00;;;;;;;;5134865;27;45641;-81
2021/12/26 12:35:48;;;;;;;;;8.50;6.75;;;;;;;;5116206;27;45375;-81
2021/12/26 12:38:28;;;;;;;;;5.00;5.00;;;;;;;;5115800;27;45558;-81
2021/12/26 12:40:54;;;;;;;;;8.50;7.50;;;;;;;;5134705;27;45471;-81
2021/12/26 12:43:20;;;;;;;;;9.25;7.75;;;;;;;;5134575;27;45491;-81
2021/12/26 12:45:52;;;;;;;;;7.25;6.25;;;;;;;;5134658;27;45444;-81
2021/12/26 12:48:32;;;;;;;;;7.00;6.75;;;;;;;;5118905;27;45558;-80
2021/12/26 12:51:21;;;;;;;;;8.50;7.50;;;;;;;;5138128;27;46157;-80
2021/12/26 12:53:46;;;;;;;;;6.75;5.75;;;;;;;;5136924;27;45891;-80
2021/12/26 12:56:29;;;;;;;;;4.67;4.00;;;;;;;;5138373;27;45629;-81
2021/12/26 12:59:16;;;;;;;;;5.25;5.25;;;;;;;;5138104;27;45369;-81
2021/12/26 13:01:51;;;;;;;;;5.75;5.50;;;;;;;;5119262;27;46390;-81
2021/12/26 13:04:17;;;;;;;;;6.25;6.00;;;;;;;;5119411;27;45502;-81
2021/12/26 13:06:53;;;;;;;;;6.75;6.75;;;;;;;;5138097;27;45467;-81
2021/12/26 13:09:19;;;;;;;;;6.00;6.00;;;;;;;;5137692;27;45511;-81
2021/12/26 13:11:44;;;;;;;;;6.75;6.00;;;;;;;;5138367;27;46048;-81
2021/12/26 13:14:10;;;;;;;;;3.25;3.00;;;;;;;;5137885;27;45319;-81
2021/12/26 13:16:35;;;;;;;;;8.00;6.00;;;;;;;;5137944;27;45344;-82
2021/12/26 13:19:08;;;;;;;;;5.00;5.00;;;;;;;;5119161;27;45568;-81
2021/12/26 13:21:33;;;;;;;;;5.25;5.00;;;;;;;;5137582;27;45341;-81
2021/12/26 13:23:59;;;;;;;;;2.75;2.75;;;;;;;;5118352;27;45494;-80
2021/12/26 13:26:24;;;;;;;;;5.67;5.00;;;;;;;;5137766;27;45555;-81
2021/12/26 13:28:50;;;;;;;;;4.00;4.00;;;;;;;;5137800;27;45292;-81
2021/12/26 13:31:22;;;;;;;;;4.75;4.00;;;;;;;;5137995;27;46151;-81
2021/12/26 13:33:51;;;;;;;;;6.00;5.00;;;;;;;;5118872;27;45977;-81
2021/12/26 13:36:20;;;;;;;;;6.50;6.00;;;;;;;;5119089;27;45510;-81
2021/12/26 13:38:46;;;;;;;;;3.50;3.25;;;;;;;;5118426;27;45444;-81
2021/12/26 13:41:13;;;;;;;;;5.00;5.00;;;;;;;;5137458;27;46048;-81
2021/12/26 13:43:39;;;;;;;;;8.75;8.75;;;;;;;;5137304;27;45902;-81
2021/12/26 13:46:05;;;;;;;;;12.50;12.50;;;;;;;;5137598;27;45363;-82
2021/12/26 13:48:32;;;;;;;;;6.25;6.00;;;;;;;;5137683;27;45689;-80
2021/12/26 13:50:58;;;;;;;;;4.00;4.00;;;;;;;;5137253;27;45867;-81
2021/12/26 13:53:24;;;;;;;;;3.00;2.50;;;;;;;;5136825;27;45360;-81
2021/12/26 13:55:53;;;;;;;;;4.75;3.50;;;;;;;;5118635;27;45559;-81
2021/12/26 13:58:19;;;;;;;;;4.00;3.00;;;;;;;;5136403;27;45273;-85
2021/12/26 14:00:52;;;;;;;;;4.00;3.50;;;;;;;;5136861;27;46889;-84
2021/12/26 14:03:17;;;;;;;;;3.00;3.00;;;;;;;;5137130;27;45363;-83
2021/12/26 14:05:42;;;;;;;;;5.00;5.00;;;;;;;;5137313;27;45381;-82
2021/12/26 14:08:15;;;;;;;;;3.50;3.50;;;;;;;;5118155;27;45258;-85
2021/12/26 14:10:41;;;;;;;;;5.00;4.75;;;;;;;;5136929;27;46497;-81
2021/12/26 14:13:08;;;;;;;;;4.00;4.00;;;;;;;;5137177;27;45435;-82
2021/12/26 14:15:35;;;;;;;;;4.25;3.50;;;;;;;;5137587;27;45516;-82
2021/12/26 14:18:02;;;;;;;;;3.00;3.00;;;;;;;;5137379;27;45645;-84
2021/12/26 14:20:40;;;;;;;;;2.00;2.00;;;;;;;;5118083;27;47227;-84
2021/12/26 14:23:21;;;;;;;;;2.50;2.50;;;;;;;;5136546;27;45471;-85
2021/12/26 14:25:48;;;;;;;;;4.25;4.00;;;;;;;;5118395;27;45481;-84
2021/12/26 14:28:14;;;;;;;;;2.00;2.00;;;;;;;;5118226;27;45668;-82